Airfield :







YOU CAN JOIN US ON...

 
LOGIN :

Register | Disclaimer

   EN    FR    IT 

 









Legend :    VFR   Marginal VFR   IFR   Intensive IFR   Very Intensive IFR
Visi :
Ceiling :
>= 8 km
>= 3000ft
5 to 8 km
1000 to 3000 ft
1500m to 5 km
500 to 1000 ft
800 to 1500m
200 to 500 ft
< 800m
< 200 ft
Symbols :   Thunderstorms  Fog  Heavy snow  Heavy precipitations  Wind > 20 kt







- Airport Elevation : 160 ft
- IATA code : YYG


CYYG - Charlottetown

CURRENT METAR :
  • 191600Z 25004KT 130V280 15SM FEW260 15/03 A3027 RMK CI1 CI TR SLP252

EXPIRED METARs :
  • 191500Z 00000KT 15SM FEW008 FEW260 14/03 A3028 RMK SF1CI1 SF TR CI TR SLP257
  • 191400Z 23005KT 180V290 15SM FEW005 FEW260 12/05 A3030 RMK SF1CI1 SF TR CI TR SLP265

TAF TAF CYYG
Valid from the 19 at 12:00 until the 20 at 00:00 UTC


191138Z 1912/1924 VRB03KT P6SM FEW004
PROB30 1912/1914 1SM BR BKN002
FM191600 20008KT P6SM FEW025 RMK NXT FCST BY 191800Z
No reported NOTAMs for that airfield.



MET'MAP, your aeronautical weather chart ! - Copyright ORBIFLY December 2007 - Disclaimer

ORBIFLY MET'MAP TEAM :

Programming & Development : Alexandra Zaïnal
Concept & Development : Baudouin d'Aumeries
Co-Development & Prog : Marc-Olivier Méhu
Technical & hardware support : Manuel Goepfert

Contact : metmap@orbifly.com




SOURCES & CREDITS :

   NOAA